SKVP/VUP METAR and TAF weather

Enter ICAO airport designator
Station Type Date Time Source
SKVP METAR 2020/07/03 20:00 UTC NOAA

SKVP 032000Z 05006KT 9999 FEW015 BKN200 36/21 A2976


Station Type Date Time Source
SKVP Decoded METAR 2020/07/03 20:00 UTC NOAA

Valledupar / Alfonso Lopez, Colombia (SKVP) 10-26N 073-15W
Jul 03, 2020 - 04:00 PM EDT / 2020.07.03 2000 UTC
Wind: from the NE (050 degrees) at 7 MPH (6 KT):0
Visibility: greater than 7 mile(s):0
Sky conditions: mostly cloudy
Temperature: 96 F (36 C)
Heat index: 101.5 F (38.6 C):1
Dew Point: 69 F (21 C)
Relative Humidity: 41%
Pressure (altimeter): 29.76 in. Hg (1007 hPa)
ob: SKVP 032000Z 05006KT 9999 FEW015 BKN200 36/21 A2976
cycle: 20

Station Type Date Time Source
SKVP TAF UTC NOAA

Error!

Example: see airport list